createdAt,value
2019-01-09T00:02:27.137Z,90.35
2019-01-09T00:04:58.060Z,89.49
2019-01-09T00:07:29.056Z,89.76
2019-01-09T00:09:59.932Z,89.31
2019-01-09T00:12:30.822Z,89.62
2019-01-09T00:15:01.656Z,91.28
2019-01-09T00:17:32.891Z,90.52
2019-01-09T00:20:04.148Z,90.97
2019-01-09T00:22:34.955Z,91.16
2019-01-09T00:25:05.999Z,90.76
2019-01-09T00:27:36.832Z,90.98
2019-01-09T00:30:08.025Z,90.39
2019-01-09T00:32:39.098Z,90.96
2019-01-09T00:35:09.973Z,90.00
2019-01-09T00:37:41.028Z,91.50
2019-01-09T00:40:12.120Z,90.13
2019-01-09T00:42:43.023Z,90.15
2019-01-09T00:45:13.875Z,89.55
2019-01-09T00:47:44.702Z,90.43
2019-01-09T00:50:15.796Z,90.12
2019-01-09T00:52:46.849Z,90.87
2019-01-09T00:55:17.943Z,92.10
2019-01-09T00:57:49.007Z,91.31
2019-01-09T01:00:20.323Z,92.50
2019-01-09T01:03:37.262Z,92.29
2019-01-09T01:06:53.987Z,91.87
2019-01-09T01:10:04.702Z,93.17
2019-01-09T01:13:08.498Z,92.57
2019-01-09T01:16:11.317Z,92.17
2019-01-09T01:19:25.339Z,92.57
2019-01-09T01:22:43.712Z,93.99
2019-01-09T01:26:00.597Z,92.58
2019-01-09T01:29:02.692Z,92.87
2019-01-09T01:32:07.158Z,92.10
2019-01-09T01:34:50.964Z,93.27
2019-01-09T01:37:59.968Z,93.71
2019-01-09T01:41:27.226Z,94.43
2019-01-09T01:44:10.386Z,95.71
2019-01-09T01:47:23.702Z,95.50
2019-01-09T01:50:03.300Z,95.13
2019-01-09T01:52:57.879Z,94.37
2019-01-09T01:55:48.276Z,94.67
2019-01-09T01:59:00.410Z,95.32
2019-01-09T02:02:02.118Z,94.97
2019-01-09T02:05:13.087Z,94.45
2019-01-09T02:07:51.309Z,93.57
2019-01-09T02:10:49.721Z,94.66
2019-01-09T02:13:31.436Z,95.12
2019-01-09T02:16:29.380Z,94.35
2019-01-09T02:19:27.860Z,95.34
2019-01-09T02:22:36.153Z,95.16
2019-01-09T02:25:39.612Z,94.11
2019-01-09T02:28:43.225Z,93.53
2019-01-09T02:31:36.493Z,93.18
2019-01-09T02:34:07.778Z,93.49
2019-01-09T02:36:38.805Z,92.42
2019-01-09T02:39:09.592Z,91.95
2019-01-09T02:41:40.442Z,91.43
2019-01-09T02:44:11.358Z,91.22
2019-01-09T02:46:42.143Z,91.55
2019-01-09T02:49:13.178Z,91.73
2019-01-09T02:51:44.044Z,91.09
2019-01-09T02:54:14.823Z,90.73
2019-01-09T02:56:45.608Z,91.36
2019-01-09T02:59:16.864Z,90.44
2019-01-09T03:01:48.715Z,90.95
2019-01-09T03:04:20.696Z,90.85
2019-01-09T03:06:51.855Z,91.31
2019-01-09T03:09:22.985Z,91.19
2019-01-09T03:11:54.372Z,90.41
2019-01-09T03:14:25.607Z,89.02
2019-01-09T03:16:56.717Z,89.65
2019-01-09T03:19:28.084Z,89.08
2019-01-09T03:21:59.368Z,89.76
2019-01-09T03:24:30.763Z,89.17
2019-01-09T03:27:02.382Z,90.64
2019-01-09T03:29:33.833Z,89.29
2019-01-09T03:32:05.238Z,90.56
2019-01-09T03:34:36.611Z,90.56
2019-01-09T03:37:07.735Z,89.75
2019-01-09T03:39:39.072Z,89.54
2019-01-09T03:42:10.210Z,89.56
2019-01-09T03:44:40.982Z,89.95
2019-01-09T03:47:12.358Z,89.88
2019-01-09T03:49:43.400Z,90.42
2019-01-09T03:52:14.710Z,90.37
2019-01-09T03:54:45.557Z,90.67
2019-01-09T03:57:17.139Z,90.49
2019-01-09T03:59:48.771Z,89.84
2019-01-09T04:02:19.790Z,90.50
2019-01-09T04:04:50.811Z,90.47
2019-01-09T04:07:21.827Z,90.58
2019-01-09T04:09:53.121Z,90.64
2019-01-09T04:12:24.643Z,90.47
2019-01-09T04:14:55.477Z,90.60
2019-01-09T04:17:26.256Z,90.63
2019-01-09T04:19:57.019Z,90.59
2019-01-09T04:22:28.029Z,90.12
2019-01-09T04:24:58.795Z,89.38
2019-01-09T04:27:29.815Z,90.09
2019-01-09T04:30:01.222Z,90.61
2019-01-09T04:32:32.292Z,89.96
2019-01-09T04:35:03.355Z,89.30
2019-01-09T04:37:34.258Z,90.36
2019-01-09T04:40:05.529Z,91.70
2019-01-09T04:42:36.378Z,92.49
2019-01-09T04:45:07.694Z,93.87
2019-01-09T04:47:38.739Z,95.57
2019-01-09T04:50:09.504Z,96.76
2019-01-09T04:52:40.287Z,97.13
2019-01-09T04:55:11.039Z,97.09
2019-01-09T04:57:41.819Z,97.73
2019-01-09T05:00:12.590Z,97.51
2019-01-09T05:02:43.678Z,97.56
2019-01-09T05:05:14.436Z,98.93
2019-01-09T05:07:45.439Z,99.77
2019-01-09T05:10:16.307Z,100.00
2019-01-09T05:12:47.090Z,100.00
2019-01-09T05:15:17.868Z,100.00
2019-01-09T05:17:48.658Z,100.00
2019-01-09T05:20:19.769Z,100.00
2019-01-09T05:22:50.790Z,99.26
2019-01-09T05:25:21.560Z,99.76
2019-01-09T05:27:52.355Z,100.00
2019-01-09T05:30:23.468Z,100.00
2019-01-09T05:32:54.277Z,100.00
2019-01-09T05:35:25.293Z,100.00
2019-01-09T05:37:56.077Z,100.00
2019-01-09T05:40:27.089Z,100.00
2019-01-09T05:42:57.888Z,100.00
2019-01-09T05:45:28.912Z,100.00
2019-01-09T05:47:59.979Z,100.00
2019-01-09T05:50:31.279Z,100.00
2019-01-09T05:53:02.471Z,100.00
2019-01-09T05:55:33.809Z,100.00
2019-01-09T05:58:05.263Z,100.00
2019-01-09T06:00:39.422Z,100.00
2019-01-09T06:03:10.232Z,100.00
2019-01-09T06:05:41.083Z,100.00
2019-01-09T06:08:12.262Z,100.00
2019-01-09T06:10:43.349Z,100.00
2019-01-09T06:13:14.217Z,100.00
2019-01-09T06:15:45.126Z,100.00
2019-01-09T06:18:15.995Z,100.00
2019-01-09T06:20:47.079Z,100.00
2019-01-09T06:23:17.944Z,100.00
2019-01-09T06:25:49.284Z,100.00
2019-01-09T06:28:20.471Z,100.00
2019-01-09T06:30:51.242Z,100.00
2019-01-09T06:33:22.125Z,100.00
2019-01-09T06:35:53.215Z,100.00
2019-01-09T06:38:24.012Z,100.00
2019-01-09T06:40:55.110Z,100.00
2019-01-09T06:43:26.409Z,100.00
2019-01-09T06:45:57.277Z,100.00
2019-01-09T06:48:28.411Z,100.00
2019-01-09T06:50:59.845Z,100.00
2019-01-09T06:53:30.903Z,100.00
2019-01-09T06:56:01.901Z,100.00
2019-01-09T06:58:33.178Z,100.00
2019-01-09T07:01:04.170Z,100.00
2019-01-09T07:03:35.230Z,100.00
2019-01-09T07:06:06.450Z,100.00
2019-01-09T07:08:37.577Z,100.00
2019-01-09T07:11:08.501Z,100.00
2019-01-09T07:13:39.550Z,100.00
2019-01-09T07:16:10.395Z,100.00
2019-01-09T07:18:41.272Z,100.00
2019-01-09T07:21:12.310Z,100.00
2019-01-09T07:23:43.523Z,100.00
2019-01-09T07:26:14.627Z,100.00
2019-01-09T07:28:46.000Z,100.00
2019-01-09T07:31:17.141Z,100.00
2019-01-09T07:33:48.242Z,100.00
2019-01-09T07:36:19.640Z,100.00
2019-01-09T07:38:50.834Z,100.00
2019-01-09T07:41:21.936Z,100.00
2019-01-09T07:43:52.960Z,100.00
2019-01-09T07:46:23.809Z,100.00
2019-01-09T07:48:54.858Z,100.00
2019-01-09T07:51:25.693Z,100.00
2019-01-09T07:53:57.558Z,100.00
2019-01-09T07:56:28.394Z,100.00
2019-01-09T07:58:59.196Z,100.00
2019-01-09T08:01:30.353Z,100.00
2019-01-09T08:04:01.144Z,100.00
2019-01-09T08:06:32.646Z,100.00
2019-01-09T08:09:05.289Z,100.00
2019-01-09T08:11:36.447Z,100.00
2019-01-09T08:14:08.234Z,100.00
2019-01-09T08:16:39.108Z,100.00
2019-01-09T08:19:09.981Z,100.00
2019-01-09T08:21:41.250Z,100.00
2019-01-09T08:24:12.301Z,100.00
2019-01-09T08:26:43.150Z,100.00
2019-01-09T08:29:14.324Z,100.00
2019-01-09T08:31:45.132Z,100.00
2019-01-09T08:34:16.033Z,100.00
2019-01-09T08:36:46.964Z,100.00
2019-01-09T08:39:17.838Z,100.00
2019-01-09T08:41:49.008Z,100.00
2019-01-09T08:44:19.877Z,100.00
2019-01-09T08:46:50.661Z,100.00
2019-01-09T08:49:21.552Z,100.00
2019-01-09T08:51:52.952Z,100.00
2019-01-09T08:54:24.009Z,100.00
2019-01-09T08:56:55.100Z,100.00
2019-01-09T08:59:26.409Z,100.00
2019-01-09T09:01:57.200Z,100.00
2019-01-09T09:04:28.315Z,100.00
2019-01-09T09:06:59.396Z,96.76
2019-01-09T09:09:32.001Z,98.20
2019-01-09T09:12:03.089Z,98.63
2019-01-09T09:14:33.882Z,98.71
2019-01-09T09:17:04.958Z,95.14
2019-01-09T09:19:35.817Z,98.11
2019-01-09T09:22:07.120Z,97.94
2019-01-09T09:24:38.138Z,98.85
2019-01-09T09:27:08.905Z,99.19
2019-01-09T09:29:39.698Z,98.77
2019-01-09T09:32:10.617Z,98.04
2019-01-09T09:34:41.407Z,98.65
2019-01-09T09:37:12.181Z,98.34
2019-01-09T09:39:43.055Z,97.95
2019-01-09T09:42:13.893Z,97.70
2019-01-09T09:44:44.682Z,98.61
2019-01-09T09:47:15.451Z,99.25
2019-01-09T09:49:46.552Z,97.89
2019-01-09T09:52:17.648Z,97.30
2019-01-09T09:54:48.635Z,96.45
2019-01-09T09:57:19.900Z,96.21
2019-01-09T09:59:50.691Z,97.79
2019-01-09T10:02:21.542Z,96.62
2019-01-09T10:04:52.347Z,97.79
2019-01-09T10:07:23.135Z,96.46
2019-01-09T10:09:54.654Z,95.99
2019-01-09T10:12:25.434Z,96.96
2019-01-09T10:14:56.644Z,96.10
2019-01-09T10:17:27.675Z,96.06
2019-01-09T10:19:58.546Z,94.58
2019-01-09T10:22:29.637Z,97.57
2019-01-09T10:25:00.577Z,96.45
2019-01-09T10:27:31.583Z,96.40
2019-01-09T10:30:02.458Z,90.88
2019-01-09T10:32:33.309Z,92.92
2019-01-09T10:35:04.586Z,94.06
2019-01-09T10:37:35.657Z,95.16
2019-01-09T10:40:07.500Z,95.38
2019-01-09T10:42:38.427Z,91.91
2019-01-09T10:45:10.413Z,93.76
2019-01-09T10:47:41.344Z,93.16
2019-01-09T10:50:12.996Z,94.87
2019-01-09T10:52:43.785Z,92.73
2019-01-09T10:55:15.391Z,91.91
2019-01-09T10:57:46.322Z,92.08
2019-01-09T11:00:22.559Z,91.26
2019-01-09T11:02:53.524Z,91.13
2019-01-09T11:05:24.660Z,90.80
2019-01-09T11:07:55.522Z,89.42
2019-01-09T11:10:26.376Z,90.42
2019-01-09T11:12:57.384Z,91.16
2019-01-09T11:15:28.407Z,89.54
2019-01-09T11:17:59.247Z,89.47
2019-01-09T11:20:30.043Z,89.26
2019-01-09T11:23:00.824Z,90.47
2019-01-09T11:25:31.705Z,86.74
2019-01-09T11:28:02.776Z,89.22
2019-01-09T11:30:33.909Z,84.49
2019-01-09T11:33:04.754Z,89.78
2019-01-09T11:35:35.857Z,87.95
2019-01-09T11:38:06.628Z,88.30
2019-01-09T11:40:37.485Z,87.46
2019-01-09T11:43:08.492Z,87.31
2019-01-09T11:45:39.662Z,88.98
2019-01-09T11:48:10.532Z,88.63
2019-01-09T11:50:41.403Z,88.28
2019-01-09T11:53:12.519Z,85.19
2019-01-09T11:55:43.382Z,86.96
2019-01-09T11:58:15.605Z,81.97
2019-01-09T12:00:46.476Z,86.37
2019-01-09T12:03:17.425Z,85.36
2019-01-09T12:05:48.235Z,79.89
2019-01-09T12:08:19.316Z,83.08
2019-01-09T12:10:50.227Z,88.11
2019-01-09T12:13:20.980Z,81.99
2019-01-09T12:15:51.768Z,84.45
2019-01-09T12:18:22.630Z,85.53
2019-01-09T12:20:53.479Z,85.79
2019-01-09T12:23:24.572Z,88.51
2019-01-09T12:25:55.446Z,90.08
2019-01-09T12:28:26.454Z,84.08
2019-01-09T12:30:57.565Z,85.79
2019-01-09T12:33:28.409Z,86.67
2019-01-09T12:35:59.391Z,86.75
2019-01-09T12:38:30.110Z,90.09
2019-01-09T12:41:01.413Z,90.27
2019-01-09T12:43:32.484Z,86.20
2019-01-09T12:46:03.597Z,86.71
2019-01-09T12:48:34.613Z,88.89
2019-01-09T12:51:05.530Z,83.36
2019-01-09T12:53:36.405Z,80.51
2019-01-09T12:56:07.830Z,81.82
2019-01-09T12:58:38.610Z,83.36
2019-01-09T13:01:09.721Z,82.44
2019-01-09T13:03:40.499Z,81.61
2019-01-09T13:06:11.635Z,83.33
2019-01-09T13:08:42.425Z,83.57
2019-01-09T13:11:13.538Z,86.09
2019-01-09T13:13:44.298Z,90.02
2019-01-09T13:16:15.161Z,89.17
2019-01-09T13:18:46.231Z,91.93
2019-01-09T13:21:17.334Z,90.54
2019-01-09T13:23:48.381Z,91.89
2019-01-09T13:26:19.547Z,92.08
2019-01-09T13:28:50.380Z,88.36
2019-01-09T13:31:21.408Z,87.85
2019-01-09T13:33:52.510Z,92.12
2019-01-09T13:36:23.372Z,87.78
2019-01-09T13:38:54.135Z,90.18
2019-01-09T13:41:25.299Z,89.41
2019-01-09T13:43:56.382Z,88.10
2019-01-09T13:46:27.181Z,85.03
2019-01-09T13:48:58.183Z,85.83
2019-01-09T13:51:29.550Z,89.45
2019-01-09T13:54:00.397Z,87.70
2019-01-09T13:56:31.500Z,83.37
2019-01-09T13:59:02.514Z,87.43
2019-01-09T14:01:33.614Z,88.60
2019-01-09T14:04:04.547Z,84.97
2019-01-09T14:06:35.537Z,88.51
2019-01-09T14:09:09.110Z,79.70
2019-01-09T14:11:39.892Z,80.31
2019-01-09T14:14:10.744Z,81.38
2019-01-09T14:16:41.747Z,83.17
2019-01-09T14:19:12.993Z,84.52
2019-01-09T14:21:44.262Z,79.30
2019-01-09T14:24:15.591Z,83.21
2019-01-09T14:26:46.699Z,86.67
2019-01-09T14:29:17.793Z,81.46
2019-01-09T14:31:48.972Z,85.46
2019-01-09T14:34:19.742Z,85.46
2019-01-09T14:36:50.598Z,87.10
2019-01-09T14:39:21.609Z,82.76
2019-01-09T14:41:52.628Z,80.42
2019-01-09T14:44:23.899Z,81.11
2019-01-09T14:46:54.693Z,82.26
2019-01-09T14:49:25.705Z,85.04
2019-01-09T14:51:56.508Z,85.93
2019-01-09T14:54:27.294Z,84.57
2019-01-09T14:56:58.095Z,83.06
2019-01-09T14:59:29.106Z,86.68
2019-01-09T15:01:59.979Z,84.59
2019-01-09T15:04:31.074Z,84.01
2019-01-09T15:07:02.043Z,81.74
2019-01-09T15:09:32.918Z,82.23
2019-01-09T15:12:04.075Z,83.36
2019-01-09T15:14:35.106Z,84.02
2019-01-09T15:17:05.958Z,85.89
2019-01-09T15:19:37.134Z,86.79
2019-01-09T15:22:08.042Z,87.98
2019-01-09T15:24:39.239Z,87.29
2019-01-09T15:27:10.296Z,87.45
2019-01-09T15:29:41.405Z,89.62
2019-01-09T15:32:12.492Z,89.97
2019-01-09T15:34:43.681Z,88.88
2019-01-09T15:37:14.771Z,87.06
2019-01-09T15:39:45.584Z,83.88
2019-01-09T15:42:16.635Z,85.79
2019-01-09T15:44:47.678Z,87.25
2019-01-09T15:47:18.518Z,87.39
2019-01-09T15:49:49.503Z,87.80
2019-01-09T15:52:20.666Z,85.50
2019-01-09T15:54:51.774Z,88.36
2019-01-09T15:57:22.567Z,88.24
2019-01-09T15:59:53.359Z,85.89
2019-01-09T16:02:24.364Z,86.28
2019-01-09T16:04:55.465Z,90.07
2019-01-09T16:07:26.247Z,88.28
2019-01-09T16:09:57.045Z,85.56
2019-01-09T16:12:28.050Z,88.64
2019-01-09T16:14:58.841Z,87.76
2019-01-09T16:17:29.626Z,89.85
2019-01-09T16:20:01.811Z,90.29
2019-01-09T16:22:32.841Z,90.94
2019-01-09T16:25:03.997Z,87.91
2019-01-09T16:27:35.254Z,88.69
2019-01-09T16:30:12.190Z,87.91
2019-01-09T16:32:43.146Z,89.11
2019-01-09T16:35:14.531Z,89.49
2019-01-09T16:37:45.989Z,91.00
2019-01-09T16:40:23.216Z,88.96
2019-01-09T16:42:50.007Z,90.53
2019-01-09T16:45:20.868Z,90.49
2019-01-09T16:47:51.848Z,89.78
2019-01-09T16:50:23.191Z,90.73
2019-01-09T16:52:54.044Z,91.06
2019-01-09T16:55:24.969Z,90.14
2019-01-09T16:57:55.812Z,90.38
2019-01-09T17:00:28.389Z,91.14
2019-01-09T17:02:59.180Z,90.88
2019-01-09T17:05:29.986Z,89.26
2019-01-09T17:08:01.155Z,83.11
2019-01-09T17:10:33.042Z,83.30
2019-01-09T17:13:03.886Z,85.88
2019-01-09T17:15:34.920Z,83.77
2019-01-09T17:18:06.590Z,83.41
2019-01-09T17:20:37.380Z,74.93
2019-01-09T17:23:08.462Z,73.50
2019-01-09T17:25:39.248Z,76.84
2019-01-09T17:28:10.263Z,79.61
2019-01-09T17:30:41.131Z,76.34
2019-01-09T17:33:12.261Z,78.58
2019-01-09T17:35:43.270Z,77.05
2019-01-09T17:38:16.108Z,77.33
2019-01-09T17:40:47.089Z,78.01
2019-01-09T17:43:17.941Z,77.94
2019-01-09T17:45:48.729Z,74.06
2019-01-09T17:48:20.205Z,76.99
2019-01-09T17:50:51.299Z,80.59
2019-01-09T17:53:22.155Z,81.02
2019-01-09T17:55:53.462Z,77.99
2019-01-09T17:58:24.505Z,79.47
2019-01-09T18:00:55.958Z,75.35
2019-01-09T18:03:26.954Z,73.81
2019-01-09T18:05:57.965Z,75.50
2019-01-09T18:08:29.045Z,75.63
2019-01-09T18:11:00.522Z,78.98
2019-01-09T18:13:31.783Z,77.34
2019-01-09T18:16:02.902Z,74.10
2019-01-09T18:18:34.645Z,75.94
2019-01-09T18:21:06.287Z,75.77
2019-01-09T18:23:37.074Z,77.47
2019-01-09T18:26:07.950Z,73.34
2019-01-09T18:28:38.729Z,76.07
2019-01-09T18:31:50.304Z,77.67
2019-01-09T18:34:37.829Z,74.68
2019-01-09T18:37:38.599Z,80.96
2019-01-09T18:40:48.747Z,76.38
2019-01-09T18:43:39.656Z,76.84
2019-01-09T18:46:56.554Z,75.12
2019-01-09T18:49:45.241Z,79.07
2019-01-09T18:52:42.007Z,79.63
2019-01-09T18:55:12.894Z,82.21
2019-01-09T18:57:43.981Z,80.93
2019-01-09T19:00:21.491Z,81.60
2019-01-09T19:02:53.647Z,84.28
2019-01-09T19:05:24.817Z,83.93
2019-01-09T19:07:55.669Z,83.69
2019-01-09T19:10:26.866Z,84.00
2019-01-09T19:12:57.655Z,86.12
2019-01-09T19:15:29.069Z,86.00
2019-01-09T19:18:00.153Z,80.54
2019-01-09T19:20:31.164Z,80.82
2019-01-09T19:23:02.088Z,82.74
2019-01-09T19:25:33.025Z,79.64
2019-01-09T19:28:04.106Z,80.36
2019-01-09T19:30:34.990Z,78.86
2019-01-09T19:33:06.124Z,84.17
2019-01-09T19:35:37.470Z,79.70
2019-01-09T19:38:08.702Z,81.12
2019-01-09T19:40:39.799Z,82.41
2019-01-09T19:43:10.653Z,82.22
2019-01-09T19:45:42.137Z,83.36
2019-01-09T19:48:12.987Z,81.17
2019-01-09T19:50:44.174Z,82.93
2019-01-09T19:53:15.029Z,84.02
2019-01-09T19:55:46.243Z,81.93
2019-01-09T19:58:17.416Z,82.58
2019-01-09T20:00:48.830Z,83.88
2019-01-09T20:03:28.635Z,84.29
2019-01-09T20:05:59.810Z,85.69
2019-01-09T20:08:30.715Z,85.63
2019-01-09T20:11:01.923Z,85.43
2019-01-09T20:13:32.753Z,87.22
2019-01-09T20:16:03.684Z,87.73
2019-01-09T20:18:34.804Z,86.42
2019-01-09T20:21:05.935Z,87.67
2019-01-09T20:23:37.118Z,87.84
2019-01-09T20:26:08.656Z,88.39
2019-01-09T20:28:39.656Z,88.00
2019-01-09T20:31:10.523Z,88.08
2019-01-09T20:33:41.508Z,88.73
2019-01-09T20:36:14.315Z,88.54
2019-01-09T20:38:45.722Z,87.77
2019-01-09T20:41:17.062Z,88.14
2019-01-09T20:43:48.219Z,88.57
2019-01-09T20:46:19.397Z,88.21
2019-01-09T20:48:50.353Z,89.01
2019-01-09T20:51:21.796Z,87.75
2019-01-09T20:53:53.194Z,87.64
2019-01-09T20:56:24.526Z,85.65
2019-01-09T20:58:55.626Z,87.04
2019-01-09T21:01:26.432Z,87.68
2019-01-09T21:03:57.505Z,86.89
2019-01-09T21:06:28.445Z,86.49
2019-01-09T21:09:00.229Z,87.18
2019-01-09T21:11:31.523Z,89.80
2019-01-09T21:14:02.386Z,90.65
2019-01-09T21:16:33.250Z,90.09
2019-01-09T21:19:04.190Z,92.86
2019-01-09T21:21:35.071Z,90.01
2019-01-09T21:24:06.129Z,91.46
2019-01-09T21:26:36.999Z,91.96
2019-01-09T21:29:07.857Z,94.02
2019-01-09T21:31:38.952Z,93.84
2019-01-09T21:34:10.294Z,94.08
2019-01-09T21:36:41.227Z,94.39
2019-01-09T21:39:12.066Z,93.20
2019-01-09T21:41:43.237Z,94.79
2019-01-09T21:44:15.981Z,95.01
2019-01-09T21:46:47.129Z,95.03
2019-01-09T21:49:17.897Z,95.85
2019-01-09T21:51:49.004Z,96.62
2019-01-09T21:54:20.142Z,95.30
2019-01-09T21:56:51.263Z,96.02
2019-01-09T21:59:23.343Z,96.38
2019-01-09T22:01:55.120Z,96.92
2019-01-09T22:04:26.418Z,96.74
2019-01-09T22:06:57.463Z,96.51
2019-01-09T22:09:28.353Z,96.07
2019-01-09T22:12:02.479Z,96.91
2019-01-09T22:14:32.019Z,96.87
2019-01-09T22:17:03.386Z,96.61
2019-01-09T22:19:34.257Z,97.83
2019-01-09T22:22:05.270Z,97.57
2019-01-09T22:24:36.728Z,98.07
2019-01-09T22:27:07.831Z,98.20
2019-01-09T22:29:39.039Z,98.21
2019-01-09T22:32:10.046Z,98.51
2019-01-09T22:34:40.894Z,98.58
2019-01-09T22:37:11.983Z,99.52
2019-01-09T22:39:43.065Z,99.31
2019-01-09T22:42:13.947Z,99.83
2019-01-09T22:44:44.878Z,100.00
2019-01-09T22:47:16.035Z,100.00
2019-01-09T22:49:47.347Z,99.72
2019-01-09T22:52:18.625Z,100.00
2019-01-09T22:54:49.637Z,100.00
2019-01-09T22:57:20.447Z,100.00
2019-01-09T22:59:51.498Z,100.00
2019-01-09T23:02:23.820Z,100.00
2019-01-09T23:04:54.951Z,100.00
2019-01-09T23:07:25.843Z,100.00
2019-01-09T23:09:56.931Z,100.00
2019-01-09T23:12:28.345Z,100.00
2019-01-09T23:14:59.439Z,100.00
2019-01-09T23:17:30.335Z,100.00
2019-01-09T23:20:01.639Z,100.00
2019-01-09T23:22:32.600Z,100.00
2019-01-09T23:25:03.855Z,100.00
2019-01-09T23:27:35.163Z,100.00
2019-01-09T23:30:08.564Z,100.00
2019-01-09T23:32:39.635Z,100.00
2019-01-09T23:35:10.607Z,100.00
2019-01-09T23:37:41.812Z,100.00
2019-01-09T23:40:13.712Z,100.00
2019-01-09T23:42:44.607Z,100.00
2019-01-09T23:45:16.070Z,100.00
2019-01-09T23:47:46.983Z,100.00
2019-01-09T23:50:17.854Z,100.00
2019-01-09T23:52:48.672Z,100.00
2019-01-09T23:55:19.836Z,100.00
2019-01-09T23:57:51.227Z,100.00
